sensor_id;sensor_type;location;lat;lon;timestamp;temperature;humidity
4749;DHT22;2388;53.582;9.962;2024-03-06T00:00:27;6.40;99.90
4749;DHT22;2388;53.582;9.962;2024-03-06T00:02:52;6.40;99.90
4749;DHT22;2388;53.582;9.962;2024-03-06T00:05:18;6.40;99.90
4749;DHT22;2388;53.582;9.962;2024-03-06T00:07:43;6.40;99.90
4749;DHT22;2388;53.582;9.962;2024-03-06T00:10:09;6.30;99.90
4749;DHT22;2388;53.582;9.962;2024-03-06T00:12:34;6.40;99.90
4749;DHT22;2388;53.582;9.962;2024-03-06T00:15:00;6.30;99.90
4749;DHT22;2388;53.582;9.962;2024-03-06T00:17:26;6.40;99.90
4749;DHT22;2388;53.582;9.962;2024-03-06T00:19:52;6.30;99.90
4749;DHT22;2388;53.582;9.962;2024-03-06T00:22:17;6.40;99.90
4749;DHT22;2388;53.582;9.962;2024-03-06T00:24:43;6.40;99.90
4749;DHT22;2388;53.582;9.962;2024-03-06T00:27:09;6.40;99.90
4749;DHT22;2388;53.582;9.962;2024-03-06T00:29:35;6.30;99.90
4749;DHT22;2388;53.582;9.962;2024-03-06T00:32:03;6.30;99.90
4749;DHT22;2388;53.582;9.962;2024-03-06T00:34:29;6.40;99.90
4749;DHT22;2388;53.582;9.962;2024-03-06T00:36:54;6.40;99.90
4749;DHT22;2388;53.582;9.962;2024-03-06T00:39:20;6.30;99.90
4749;DHT22;2388;53.582;9.962;2024-03-06T00:41:45;6.30;99.90
4749;DHT22;2388;53.582;9.962;2024-03-06T00:44:11;6.30;99.90
4749;DHT22;2388;53.582;9.962;2024-03-06T00:46:36;6.40;99.90
4749;DHT22;2388;53.582;9.962;2024-03-06T00:49:02;6.40;99.90
4749;DHT22;2388;53.582;9.962;2024-03-06T00:51:27;6.30;99.90
4749;DHT22;2388;53.582;9.962;2024-03-06T00:53:53;6.30;99.90
4749;DHT22;2388;53.582;9.962;2024-03-06T00:56:18;6.20;99.90
4749;DHT22;2388;53.582;9.962;2024-03-06T00:58:44;6.20;99.90
4749;DHT22;2388;53.582;9.962;2024-03-06T01:01:09;6.20;99.90
4749;DHT22;2388;53.582;9.962;2024-03-06T01:03:35;6.30;99.90
4749;DHT22;2388;53.582;9.962;2024-03-06T01:06:02;6.30;99.90
4749;DHT22;2388;53.582;9.962;2024-03-06T01:08:28;6.30;99.90
4749;DHT22;2388;53.582;9.962;2024-03-06T01:10:53;6.30;99.90
4749;DHT22;2388;53.582;9.962;2024-03-06T01:13:20;6.30;99.90
4749;DHT22;2388;53.582;9.962;2024-03-06T01:15:45;6.30;99.90
4749;DHT22;2388;53.582;9.962;2024-03-06T01:18:11;6.40;99.90
4749;DHT22;2388;53.582;9.962;2024-03-06T01:20:37;6.30;99.90
4749;DHT22;2388;53.582;9.962;2024-03-06T01:23:03;6.30;99.90
4749;DHT22;2388;53.582;9.962;2024-03-06T01:25:28;6.30;99.90
4749;DHT22;2388;53.582;9.962;2024-03-06T01:27:54;6.30;99.90
4749;DHT22;2388;53.582;9.962;2024-03-06T01:30:19;6.30;99.90
4749;DHT22;2388;53.582;9.962;2024-03-06T01:32:45;6.30;99.90
4749;DHT22;2388;53.582;9.962;2024-03-06T01:35:11;6.30;99.90
4749;DHT22;2388;53.582;9.962;2024-03-06T01:37:37;6.30;99.90
4749;DHT22;2388;53.582;9.962;2024-03-06T01:40:02;6.30;99.90
4749;DHT22;2388;53.582;9.962;2024-03-06T01:42:30;6.20;99.90
4749;DHT22;2388;53.582;9.962;2024-03-06T01:44:55;6.20;99.90
4749;DHT22;2388;53.582;9.962;2024-03-06T01:47:21;6.20;99.90
4749;DHT22;2388;53.582;9.962;2024-03-06T01:49:46;6.40;99.90
4749;DHT22;2388;53.582;9.962;2024-03-06T01:52:14;6.30;99.90
4749;DHT22;2388;53.582;9.962;2024-03-06T01:54:41;6.30;99.90
4749;DHT22;2388;53.582;9.962;2024-03-06T01:57:08;6.30;99.90
4749;DHT22;2388;53.582;9.962;2024-03-06T01:59:33;6.30;99.90
4749;DHT22;2388;53.582;9.962;2024-03-06T02:02:00;6.20;99.90
4749;DHT22;2388;53.582;9.962;2024-03-06T02:04:27;6.30;99.90
4749;DHT22;2388;53.582;9.962;2024-03-06T02:06:53;6.30;99.90
4749;DHT22;2388;53.582;9.962;2024-03-06T02:09:19;6.30;99.90
4749;DHT22;2388;53.582;9.962;2024-03-06T02:11:45;6.30;99.90
4749;DHT22;2388;53.582;9.962;2024-03-06T02:14:10;6.30;99.90
4749;DHT22;2388;53.582;9.962;2024-03-06T02:16:37;6.30;99.90
4749;DHT22;2388;53.582;9.962;2024-03-06T02:19:05;6.30;99.90
4749;DHT22;2388;53.582;9.962;2024-03-06T02:21:31;6.30;99.90
4749;DHT22;2388;53.582;9.962;2024-03-06T02:23:56;6.30;99.90
4749;DHT22;2388;53.582;9.962;2024-03-06T02:26:22;6.30;99.90
4749;DHT22;2388;53.582;9.962;2024-03-06T02:28:52;6.30;99.90
4749;DHT22;2388;53.582;9.962;2024-03-06T02:31:18;6.30;99.90
4749;DHT22;2388;53.582;9.962;2024-03-06T02:33:45;6.30;99.90
4749;DHT22;2388;53.582;9.962;2024-03-06T02:36:16;6.20;99.90
4749;DHT22;2388;53.582;9.962;2024-03-06T02:38:42;6.20;99.90
4749;DHT22;2388;53.582;9.962;2024-03-06T02:41:09;6.20;99.90
4749;DHT22;2388;53.582;9.962;2024-03-06T02:43:34;6.20;99.90
4749;DHT22;2388;53.582;9.962;2024-03-06T02:46:00;6.30;99.90
4749;DHT22;2388;53.582;9.962;2024-03-06T02:48:25;6.10;99.90
4749;DHT22;2388;53.582;9.962;2024-03-06T02:50:51;6.20;99.90
4749;DHT22;2388;53.582;9.962;2024-03-06T02:53:16;6.10;99.90
4749;DHT22;2388;53.582;9.962;2024-03-06T02:55:42;6.10;99.90
4749;DHT22;2388;53.582;9.962;2024-03-06T02:58:07;6.10;99.90
4749;DHT22;2388;53.582;9.962;2024-03-06T03:00:33;6.10;99.90
4749;DHT22;2388;53.582;9.962;2024-03-06T03:02:58;6.10;99.90
4749;DHT22;2388;53.582;9.962;2024-03-06T03:05:24;6.20;99.90
4749;DHT22;2388;53.582;9.962;2024-03-06T03:07:50;6.00;99.90
4749;DHT22;2388;53.582;9.962;2024-03-06T03:10:16;6.00;99.90
4749;DHT22;2388;53.582;9.962;2024-03-06T03:12:42;5.90;99.90
4749;DHT22;2388;53.582;9.962;2024-03-06T03:15:08;5.80;99.90
4749;DHT22;2388;53.582;9.962;2024-03-06T03:17:34;5.90;99.90
4749;DHT22;2388;53.582;9.962;2024-03-06T03:20:00;5.90;99.90
4749;DHT22;2388;53.582;9.962;2024-03-06T03:22:41;5.90;99.90
4749;DHT22;2388;53.582;9.962;2024-03-06T03:25:08;6.00;99.90
4749;DHT22;2388;53.582;9.962;2024-03-06T03:27:33;6.00;99.90
4749;DHT22;2388;53.582;9.962;2024-03-06T03:29:59;6.00;99.90
4749;DHT22;2388;53.582;9.962;2024-03-06T03:32:24;5.90;99.90
4749;DHT22;2388;53.582;9.962;2024-03-06T03:34:50;5.80;99.90
4749;DHT22;2388;53.582;9.962;2024-03-06T03:37:16;5.80;99.90
4749;DHT22;2388;53.582;9.962;2024-03-06T03:39:43;5.80;99.90
4749;DHT22;2388;53.582;9.962;2024-03-06T03:42:09;5.80;99.90
4749;DHT22;2388;53.582;9.962;2024-03-06T03:44:34;5.80;99.90
4749;DHT22;2388;53.582;9.962;2024-03-06T03:47:00;5.80;99.90
4749;DHT22;2388;53.582;9.962;2024-03-06T03:49:25;5.70;99.90
4749;DHT22;2388;53.582;9.962;2024-03-06T03:51:51;5.60;99.90
4749;DHT22;2388;53.582;9.962;2024-03-06T03:54:17;5.70;99.90
4749;DHT22;2388;53.582;9.962;2024-03-06T03:56:42;5.70;99.90
4749;DHT22;2388;53.582;9.962;2024-03-06T03:59:08;5.70;99.90
4749;DHT22;2388;53.582;9.962;2024-03-06T04:01:33;5.60;99.90
4749;DHT22;2388;53.582;9.962;2024-03-06T04:03:59;5.60;99.90
4749;DHT22;2388;53.582;9.962;2024-03-06T04:06:24;5.50;99.90
4749;DHT22;2388;53.582;9.962;2024-03-06T04:08:50;5.50;99.90
4749;DHT22;2388;53.582;9.962;2024-03-06T04:11:16;5.50;99.90
4749;DHT22;2388;53.582;9.962;2024-03-06T04:13:41;5.50;99.90
4749;DHT22;2388;53.582;9.962;2024-03-06T04:16:07;5.50;99.90
4749;DHT22;2388;53.582;9.962;2024-03-06T04:18:33;5.50;99.90
4749;DHT22;2388;53.582;9.962;2024-03-06T04:21:04;5.50;99.90
4749;DHT22;2388;53.582;9.962;2024-03-06T04:23:31;5.40;99.90
4749;DHT22;2388;53.582;9.962;2024-03-06T04:25:56;5.40;99.90
4749;DHT22;2388;53.582;9.962;2024-03-06T04:28:22;5.40;99.90
4749;DHT22;2388;53.582;9.962;2024-03-06T04:30:47;5.40;99.90
4749;DHT22;2388;53.582;9.962;2024-03-06T04:33:13;5.40;99.90
4749;DHT22;2388;53.582;9.962;2024-03-06T04:35:40;5.50;99.90
4749;DHT22;2388;53.582;9.962;2024-03-06T04:38:06;5.40;99.90
4749;DHT22;2388;53.582;9.962;2024-03-06T04:40:31;5.30;99.90
4749;DHT22;2388;53.582;9.962;2024-03-06T04:42:57;5.30;99.90
4749;DHT22;2388;53.582;9.962;2024-03-06T04:45:23;5.30;99.90
4749;DHT22;2388;53.582;9.962;2024-03-06T04:47:48;5.30;99.90
4749;DHT22;2388;53.582;9.962;2024-03-06T04:50:13;5.30;99.90
4749;DHT22;2388;53.582;9.962;2024-03-06T04:52:42;5.30;99.90
4749;DHT22;2388;53.582;9.962;2024-03-06T04:55:08;5.30;99.90
4749;DHT22;2388;53.582;9.962;2024-03-06T04:57:38;5.30;99.90
4749;DHT22;2388;53.582;9.962;2024-03-06T05:00:04;5.30;99.90
4749;DHT22;2388;53.582;9.962;2024-03-06T05:02:34;5.30;99.90
4749;DHT22;2388;53.582;9.962;2024-03-06T05:05:01;5.30;99.90
4749;DHT22;2388;53.582;9.962;2024-03-06T05:07:28;5.20;99.90
4749;DHT22;2388;53.582;9.962;2024-03-06T05:09:54;5.20;99.90
4749;DHT22;2388;53.582;9.962;2024-03-06T05:12:20;5.20;99.90
4749;DHT22;2388;53.582;9.962;2024-03-06T05:14:45;5.10;99.90
4749;DHT22;2388;53.582;9.962;2024-03-06T05:17:11;5.20;99.90
4749;DHT22;2388;53.582;9.962;2024-03-06T05:19:37;5.10;99.90
4749;DHT22;2388;53.582;9.962;2024-03-06T05:22:03;5.10;99.90
4749;DHT22;2388;53.582;9.962;2024-03-06T05:24:29;5.10;99.90
4749;DHT22;2388;53.582;9.962;2024-03-06T05:26:54;5.00;99.90
4749;DHT22;2388;53.582;9.962;2024-03-06T05:29:20;5.00;99.90
4749;DHT22;2388;53.582;9.962;2024-03-06T05:31:45;5.10;99.90
4749;DHT22;2388;53.582;9.962;2024-03-06T05:34:11;5.00;99.90
4749;DHT22;2388;53.582;9.962;2024-03-06T05:36:36;5.00;99.90
4749;DHT22;2388;53.582;9.962;2024-03-06T05:39:02;5.00;99.90
4749;DHT22;2388;53.582;9.962;2024-03-06T05:41:32;5.00;99.90
4749;DHT22;2388;53.582;9.962;2024-03-06T05:43:57;4.90;99.90
4749;DHT22;2388;53.582;9.962;2024-03-06T05:46:23;5.00;99.90
4749;DHT22;2388;53.582;9.962;2024-03-06T05:48:48;5.00;99.90
4749;DHT22;2388;53.582;9.962;2024-03-06T05:51:15;5.00;99.90
4749;DHT22;2388;53.582;9.962;2024-03-06T05:53:41;4.90;99.90
4749;DHT22;2388;53.582;9.962;2024-03-06T05:56:08;5.00;99.90
4749;DHT22;2388;53.582;9.962;2024-03-06T05:58:33;4.90;99.90
4749;DHT22;2388;53.582;9.962;2024-03-06T06:01:00;5.00;99.90
4749;DHT22;2388;53.582;9.962;2024-03-06T06:03:26;5.00;99.90
4749;DHT22;2388;53.582;9.962;2024-03-06T06:05:54;5.00;99.90
4749;DHT22;2388;53.582;9.962;2024-03-06T06:08:19;5.00;99.90
4749;DHT22;2388;53.582;9.962;2024-03-06T06:10:45;5.00;99.90
4749;DHT22;2388;53.582;9.962;2024-03-06T06:13:10;5.00;99.90
4749;DHT22;2388;53.582;9.962;2024-03-06T06:15:36;4.90;99.90
4749;DHT22;2388;53.582;9.962;2024-03-06T06:18:01;4.90;99.90
4749;DHT22;2388;53.582;9.962;2024-03-06T06:20:27;4.90;99.90
4749;DHT22;2388;53.582;9.962;2024-03-06T06:22:52;4.90;99.90
4749;DHT22;2388;53.582;9.962;2024-03-06T06:25:18;4.90;99.90
4749;DHT22;2388;53.582;9.962;2024-03-06T06:27:43;4.90;99.90
4749;DHT22;2388;53.582;9.962;2024-03-06T06:30:09;4.90;99.90
4749;DHT22;2388;53.582;9.962;2024-03-06T06:32:37;4.90;99.90
4749;DHT22;2388;53.582;9.962;2024-03-06T06:35:04;5.00;99.90
4749;DHT22;2388;53.582;9.962;2024-03-06T06:37:29;4.90;99.90
4749;DHT22;2388;53.582;9.962;2024-03-06T06:39:55;4.90;99.90
4749;DHT22;2388;53.582;9.962;2024-03-06T06:42:20;4.90;99.90
4749;DHT22;2388;53.582;9.962;2024-03-06T06:44:46;4.90;99.90
4749;DHT22;2388;53.582;9.962;2024-03-06T06:47:11;4.90;99.90
4749;DHT22;2388;53.582;9.962;2024-03-06T06:49:37;4.90;99.90
4749;DHT22;2388;53.582;9.962;2024-03-06T06:52:02;5.00;99.90
4749;DHT22;2388;53.582;9.962;2024-03-06T06:54:28;5.00;99.90
4749;DHT22;2388;53.582;9.962;2024-03-06T06:56:53;5.00;99.90
4749;DHT22;2388;53.582;9.962;2024-03-06T06:59:19;5.00;99.90
4749;DHT22;2388;53.582;9.962;2024-03-06T07:01:45;4.90;99.90
4749;DHT22;2388;53.582;9.962;2024-03-06T07:04:11;4.90;99.90
4749;DHT22;2388;53.582;9.962;2024-03-06T07:06:36;4.90;99.90
4749;DHT22;2388;53.582;9.962;2024-03-06T07:09:02;5.00;99.90
4749;DHT22;2388;53.582;9.962;2024-03-06T07:11:30;5.00;99.90
4749;DHT22;2388;53.582;9.962;2024-03-06T07:13:56;5.00;99.90
4749;DHT22;2388;53.582;9.962;2024-03-06T07:16:21;5.10;99.90
4749;DHT22;2388;53.582;9.962;2024-03-06T07:18:47;5.10;99.90
4749;DHT22;2388;53.582;9.962;2024-03-06T07:21:13;5.10;99.90
4749;DHT22;2388;53.582;9.962;2024-03-06T07:23:38;5.20;99.90
4749;DHT22;2388;53.582;9.962;2024-03-06T07:26:04;5.20;99.90
4749;DHT22;2388;53.582;9.962;2024-03-06T07:28:30;5.20;99.90
4749;DHT22;2388;53.582;9.962;2024-03-06T07:30:55;5.30;99.90
4749;DHT22;2388;53.582;9.962;2024-03-06T07:33:21;5.30;99.90
4749;DHT22;2388;53.582;9.962;2024-03-06T07:35:46;5.30;99.90
4749;DHT22;2388;53.582;9.962;2024-03-06T07:38:12;5.30;99.90
4749;DHT22;2388;53.582;9.962;2024-03-06T07:40:37;5.30;99.90
4749;DHT22;2388;53.582;9.962;2024-03-06T07:43:03;5.30;99.90
4749;DHT22;2388;53.582;9.962;2024-03-06T07:45:29;5.40;99.90
4749;DHT22;2388;53.582;9.962;2024-03-06T07:47:55;5.40;99.90
4749;DHT22;2388;53.582;9.962;2024-03-06T07:50:20;5.50;99.90
4749;DHT22;2388;53.582;9.962;2024-03-06T07:52:46;5.60;99.90
4749;DHT22;2388;53.582;9.962;2024-03-06T07:55:12;5.60;99.90
4749;DHT22;2388;53.582;9.962;2024-03-06T07:57:37;5.60;99.90
4749;DHT22;2388;53.582;9.962;2024-03-06T08:00:04;5.60;99.90
4749;DHT22;2388;53.582;9.962;2024-03-06T08:02:42;5.60;99.90
4749;DHT22;2388;53.582;9.962;2024-03-06T08:05:15;5.70;99.90
4749;DHT22;2388;53.582;9.962;2024-03-06T08:07:41;5.70;99.90
4749;DHT22;2388;53.582;9.962;2024-03-06T08:10:11;5.70;99.90
4749;DHT22;2388;53.582;9.962;2024-03-06T08:12:42;5.70;99.90
4749;DHT22;2388;53.582;9.962;2024-03-06T08:15:10;5.80;99.90
4749;DHT22;2388;53.582;9.962;2024-03-06T08:17:38;5.80;99.90
4749;DHT22;2388;53.582;9.962;2024-03-06T08:20:04;5.80;99.90
4749;DHT22;2388;53.582;9.962;2024-03-06T08:22:39;5.80;99.90
4749;DHT22;2388;53.582;9.962;2024-03-06T08:25:10;5.70;99.90
4749;DHT22;2388;53.582;9.962;2024-03-06T08:27:37;5.80;99.90
4749;DHT22;2388;53.582;9.962;2024-03-06T08:30:04;5.70;99.90
4749;DHT22;2388;53.582;9.962;2024-03-06T08:32:31;5.70;99.90
4749;DHT22;2388;53.582;9.962;2024-03-06T08:34:58;5.70;99.90
4749;DHT22;2388;53.582;9.962;2024-03-06T08:37:24;5.90;99.90
4749;DHT22;2388;53.582;9.962;2024-03-06T08:39:49;5.90;99.90
4749;DHT22;2388;53.582;9.962;2024-03-06T08:42:15;6.00;99.90
4749;DHT22;2388;53.582;9.962;2024-03-06T08:44:44;6.00;99.90
4749;DHT22;2388;53.582;9.962;2024-03-06T08:47:09;5.90;99.90
4749;DHT22;2388;53.582;9.962;2024-03-06T08:49:35;5.90;99.90
4749;DHT22;2388;53.582;9.962;2024-03-06T08:52:00;5.90;99.90
4749;DHT22;2388;53.582;9.962;2024-03-06T08:54:25;5.90;99.90
4749;DHT22;2388;53.582;9.962;2024-03-06T08:56:51;5.90;99.90
4749;DHT22;2388;53.582;9.962;2024-03-06T08:59:19;5.90;99.90
4749;DHT22;2388;53.582;9.962;2024-03-06T09:01:44;6.00;99.90
4749;DHT22;2388;53.582;9.962;2024-03-06T09:04:09;6.10;99.90
4749;DHT22;2388;53.582;9.962;2024-03-06T09:06:35;6.20;99.90
4749;DHT22;2388;53.582;9.962;2024-03-06T09:09:01;6.30;99.90
4749;DHT22;2388;53.582;9.962;2024-03-06T09:11:27;6.40;99.90
4749;DHT22;2388;53.582;9.962;2024-03-06T09:13:52;6.40;99.90
4749;DHT22;2388;53.582;9.962;2024-03-06T09:16:18;6.50;99.90
4749;DHT22;2388;53.582;9.962;2024-03-06T09:18:43;6.70;99.90
4749;DHT22;2388;53.582;9.962;2024-03-06T09:21:09;6.80;99.90
4749;DHT22;2388;53.582;9.962;2024-03-06T09:23:34;7.00;99.90
4749;DHT22;2388;53.582;9.962;2024-03-06T09:26:00;6.80;99.90
4749;DHT22;2388;53.582;9.962;2024-03-06T09:28:25;6.70;99.90
4749;DHT22;2388;53.582;9.962;2024-03-06T09:30:51;6.60;99.90
4749;DHT22;2388;53.582;9.962;2024-03-06T09:33:16;6.50;99.90
4749;DHT22;2388;53.582;9.962;2024-03-06T09:35:42;6.50;99.90
4749;DHT22;2388;53.582;9.962;2024-03-06T09:38:11;6.60;99.90
4749;DHT22;2388;53.582;9.962;2024-03-06T09:40:38;6.60;99.90
4749;DHT22;2388;53.582;9.962;2024-03-06T09:43:05;6.60;99.90
4749;DHT22;2388;53.582;9.962;2024-03-06T09:45:32;6.30;99.90
4749;DHT22;2388;53.582;9.962;2024-03-06T09:47:57;6.70;99.90
4749;DHT22;2388;53.582;9.962;2024-03-06T09:50:24;6.70;99.90
4749;DHT22;2388;53.582;9.962;2024-03-06T09:52:51;6.80;99.90
4749;DHT22;2388;53.582;9.962;2024-03-06T09:55:18;6.80;99.90
4749;DHT22;2388;53.582;9.962;2024-03-06T09:57:43;6.80;99.90
4749;DHT22;2388;53.582;9.962;2024-03-06T10:00:09;6.70;99.90
4749;DHT22;2388;53.582;9.962;2024-03-06T10:02:38;6.80;99.90
4749;DHT22;2388;53.582;9.962;2024-03-06T10:05:04;6.90;99.90
4749;DHT22;2388;53.582;9.962;2024-03-06T10:07:31;6.90;99.90
4749;DHT22;2388;53.582;9.962;2024-03-06T10:09:56;7.00;99.90
4749;DHT22;2388;53.582;9.962;2024-03-06T10:12:22;7.00;99.90
4749;DHT22;2388;53.582;9.962;2024-03-06T10:14:51;7.00;99.90
4749;DHT22;2388;53.582;9.962;2024-03-06T10:17:20;7.00;99.90
4749;DHT22;2388;53.582;9.962;2024-03-06T10:19:49;7.00;99.90
4749;DHT22;2388;53.582;9.962;2024-03-06T10:22:19;7.00;99.90
4749;DHT22;2388;53.582;9.962;2024-03-06T10:24:46;7.10;99.90
4749;DHT22;2388;53.582;9.962;2024-03-06T10:27:15;7.10;99.90
4749;DHT22;2388;53.582;9.962;2024-03-06T10:29:42;7.20;99.90
4749;DHT22;2388;53.582;9.962;2024-03-06T10:32:08;7.30;99.90
4749;DHT22;2388;53.582;9.962;2024-03-06T10:34:33;7.40;99.90
4749;DHT22;2388;53.582;9.962;2024-03-06T10:37:02;7.40;99.90
4749;DHT22;2388;53.582;9.962;2024-03-06T10:39:33;7.50;99.90
4749;DHT22;2388;53.582;9.962;2024-03-06T10:42:06;7.50;99.90
4749;DHT22;2388;53.582;9.962;2024-03-06T10:44:34;7.50;99.90
4749;DHT22;2388;53.582;9.962;2024-03-06T10:47:05;7.50;99.90
4749;DHT22;2388;53.582;9.962;2024-03-06T10:49:31;7.60;99.90
4749;DHT22;2388;53.582;9.962;2024-03-06T10:51:59;7.70;99.90
4749;DHT22;2388;53.582;9.962;2024-03-06T10:54:27;7.70;99.90
4749;DHT22;2388;53.582;9.962;2024-03-06T10:56:55;7.80;99.90
4749;DHT22;2388;53.582;9.962;2024-03-06T10:59:21;7.90;99.90
4749;DHT22;2388;53.582;9.962;2024-03-06T11:01:50;8.10;99.90
4749;DHT22;2388;53.582;9.962;2024-03-06T11:04:17;8.10;99.90
4749;DHT22;2388;53.582;9.962;2024-03-06T11:06:42;8.10;99.90
4749;DHT22;2388;53.582;9.962;2024-03-06T11:09:08;8.20;99.90
4749;DHT22;2388;53.582;9.962;2024-03-06T11:11:48;8.40;99.90
4749;DHT22;2388;53.582;9.962;2024-03-06T11:14:14;8.60;99.90
4749;DHT22;2388;53.582;9.962;2024-03-06T11:17:01;8.80;99.90
4749;DHT22;2388;53.582;9.962;2024-03-06T11:19:28;9.10;99.90
4749;DHT22;2388;53.582;9.962;2024-03-06T11:21:54;9.30;99.90
4749;DHT22;2388;53.582;9.962;2024-03-06T11:24:24;9.60;99.90
4749;DHT22;2388;53.582;9.962;2024-03-06T11:26:59;9.90;1.00
4749;DHT22;2388;53.582;9.962;2024-03-06T11:30:12;10.10;99.90
4749;DHT22;2388;53.582;9.962;2024-03-06T11:32:13;10.10;1.00
4749;DHT22;2388;53.582;9.962;2024-03-06T11:34:38;9.90;1.00
4749;DHT22;2388;53.582;9.962;2024-03-06T11:37:05;9.90;99.90
4749;DHT22;2388;53.582;9.962;2024-03-06T11:39:36;9.80;99.90
4749;DHT22;2388;53.582;9.962;2024-03-06T11:42:03;9.70;99.90
4749;DHT22;2388;53.582;9.962;2024-03-06T11:44:31;9.60;99.90
4749;DHT22;2388;53.582;9.962;2024-03-06T11:47:04;9.60;99.90
4749;DHT22;2388;53.582;9.962;2024-03-06T11:49:31;9.70;99.90
4749;DHT22;2388;53.582;9.962;2024-03-06T11:52:06;9.80;99.90
4749;DHT22;2388;53.582;9.962;2024-03-06T11:54:33;9.90;99.90
4749;DHT22;2388;53.582;9.962;2024-03-06T11:57:01;10.00;99.90
4749;DHT22;2388;53.582;9.962;2024-03-06T11:59:29;10.10;99.90
4749;DHT22;2388;53.582;9.962;2024-03-06T12:01:56;9.90;99.90
4749;DHT22;2388;53.582;9.962;2024-03-06T12:04:22;9.70;99.90
4749;DHT22;2388;53.582;9.962;2024-03-06T12:06:48;9.60;99.90
4749;DHT22;2388;53.582;9.962;2024-03-06T12:09:14;9.50;99.90
4749;DHT22;2388;53.582;9.962;2024-03-06T12:11:40;9.50;99.90
4749;DHT22;2388;53.582;9.962;2024-03-06T12:14:12;9.30;99.90
4749;DHT22;2388;53.582;9.962;2024-03-06T12:16:38;9.30;99.90
4749;DHT22;2388;53.582;9.962;2024-03-06T12:19:03;9.30;99.90
4749;DHT22;2388;53.582;9.962;2024-03-06T12:21:34;9.20;99.90
4749;DHT22;2388;53.582;9.962;2024-03-06T12:24:07;9.30;99.90
4749;DHT22;2388;53.582;9.962;2024-03-06T12:26:33;9.40;99.90
4749;DHT22;2388;53.582;9.962;2024-03-06T12:29:09;9.30;99.90
4749;DHT22;2388;53.582;9.962;2024-03-06T12:31:36;9.30;99.90
4749;DHT22;2388;53.582;9.962;2024-03-06T12:34:03;9.20;99.90
4749;DHT22;2388;53.582;9.962;2024-03-06T12:36:29;9.30;99.90
4749;DHT22;2388;53.582;9.962;2024-03-06T12:39:01;9.40;99.90
4749;DHT22;2388;53.582;9.962;2024-03-06T12:41:27;9.50;99.90
4749;DHT22;2388;53.582;9.962;2024-03-06T12:43:54;9.60;99.90
4749;DHT22;2388;53.582;9.962;2024-03-06T12:46:20;9.70;99.90
4749;DHT22;2388;53.582;9.962;2024-03-06T12:48:45;9.80;99.90
4749;DHT22;2388;53.582;9.962;2024-03-06T12:51:11;10.00;99.90
4749;DHT22;2388;53.582;9.962;2024-03-06T12:53:37;10.20;99.90
4749;DHT22;2388;53.582;9.962;2024-03-06T12:56:03;10.20;99.90
4749;DHT22;2388;53.582;9.962;2024-03-06T12:58:28;10.30;99.90
4749;DHT22;2388;53.582;9.962;2024-03-06T13:00:56;10.40;99.90
4749;DHT22;2388;53.582;9.962;2024-03-06T13:03:23;10.30;99.90
4749;DHT22;2388;53.582;9.962;2024-03-06T13:05:48;10.30;99.90
4749;DHT22;2388;53.582;9.962;2024-03-06T13:08:14;10.20;99.90
4749;DHT22;2388;53.582;9.962;2024-03-06T13:10:40;10.30;99.90
4749;DHT22;2388;53.582;9.962;2024-03-06T13:13:06;10.60;99.90
4749;DHT22;2388;53.582;9.962;2024-03-06T13:15:34;10.90;99.90
4749;DHT22;2388;53.582;9.962;2024-03-06T13:18:00;11.30;99.90
4749;DHT22;2388;53.582;9.962;2024-03-06T13:20:31;11.30;99.90
4749;DHT22;2388;53.582;9.962;2024-03-06T13:22:57;11.40;99.90
4749;DHT22;2388;53.582;9.962;2024-03-06T13:25:23;11.30;99.90
4749;DHT22;2388;53.582;9.962;2024-03-06T13:27:50;10.90;99.90
4749;DHT22;2388;53.582;9.962;2024-03-06T13:30:17;10.70;99.90
4749;DHT22;2388;53.582;9.962;2024-03-06T13:32:43;10.60;99.90
4749;DHT22;2388;53.582;9.962;2024-03-06T13:35:08;10.50;99.90
4749;DHT22;2388;53.582;9.962;2024-03-06T13:37:47;10.40;99.90
4749;DHT22;2388;53.582;9.962;2024-03-06T13:40:14;10.30;99.90
4749;DHT22;2388;53.582;9.962;2024-03-06T13:42:40;10.20;99.90
4749;DHT22;2388;53.582;9.962;2024-03-06T13:45:06;10.00;99.90
4749;DHT22;2388;53.582;9.962;2024-03-06T13:47:38;9.90;99.90
4749;DHT22;2388;53.582;9.962;2024-03-06T13:50:11;9.80;99.90
4749;DHT22;2388;53.582;9.962;2024-03-06T13:52:37;9.80;99.90
4749;DHT22;2388;53.582;9.962;2024-03-06T13:55:03;9.90;99.90
4749;DHT22;2388;53.582;9.962;2024-03-06T13:57:32;9.90;99.90
4749;DHT22;2388;53.582;9.962;2024-03-06T14:00:08;10.00;99.90
4749;DHT22;2388;53.582;9.962;2024-03-06T14:02:38;10.00;99.90
4749;DHT22;2388;53.582;9.962;2024-03-06T14:05:05;10.00;99.90
4749;DHT22;2388;53.582;9.962;2024-03-06T14:07:31;10.00;99.90
4749;DHT22;2388;53.582;9.962;2024-03-06T14:09:56;10.00;99.90
4749;DHT22;2388;53.582;9.962;2024-03-06T14:12:22;9.90;99.90
4749;DHT22;2388;53.582;9.962;2024-03-06T14:14:48;9.80;99.90
4749;DHT22;2388;53.582;9.962;2024-03-06T14:17:13;9.80;99.90
4749;DHT22;2388;53.582;9.962;2024-03-06T14:19:39;9.80;99.90
4749;DHT22;2388;53.582;9.962;2024-03-06T14:22:06;10.00;99.90
4749;DHT22;2388;53.582;9.962;2024-03-06T14:24:32;10.10;99.90
4749;DHT22;2388;53.582;9.962;2024-03-06T14:26:57;10.20;99.90
4749;DHT22;2388;53.582;9.962;2024-03-06T14:29:23;10.30;99.90
4749;DHT22;2388;53.582;9.962;2024-03-06T14:31:48;10.40;99.90
4749;DHT22;2388;53.582;9.962;2024-03-06T14:34:14;10.40;99.90
4749;DHT22;2388;53.582;9.962;2024-03-06T14:36:40;10.30;99.90
4749;DHT22;2388;53.582;9.962;2024-03-06T14:39:07;10.20;99.90
4749;DHT22;2388;53.582;9.962;2024-03-06T14:41:35;10.10;99.90
4749;DHT22;2388;53.582;9.962;2024-03-06T14:44:01;10.10;99.90
4749;DHT22;2388;53.582;9.962;2024-03-06T14:46:26;10.10;99.90
4749;DHT22;2388;53.582;9.962;2024-03-06T14:48:52;10.00;99.90
4749;DHT22;2388;53.582;9.962;2024-03-06T14:51:17;9.90;99.90
4749;DHT22;2388;53.582;9.962;2024-03-06T14:53:43;10.00;99.90
4749;DHT22;2388;53.582;9.962;2024-03-06T14:56:08;9.90;99.90
4749;DHT22;2388;53.582;9.962;2024-03-06T14:58:36;10.00;99.90
4749;DHT22;2388;53.582;9.962;2024-03-06T15:01:01;9.90;99.90
4749;DHT22;2388;53.582;9.962;2024-03-06T15:03:27;9.70;99.90
4749;DHT22;2388;53.582;9.962;2024-03-06T15:05:53;9.70;99.90
4749;DHT22;2388;53.582;9.962;2024-03-06T15:08:19;9.50;99.90
4749;DHT22;2388;53.582;9.962;2024-03-06T15:10:44;9.40;99.90
4749;DHT22;2388;53.582;9.962;2024-03-06T15:13:10;9.30;99.90
4749;DHT22;2388;53.582;9.962;2024-03-06T15:15:38;9.20;99.90
4749;DHT22;2388;53.582;9.962;2024-03-06T15:18:05;9.20;99.90
4749;DHT22;2388;53.582;9.962;2024-03-06T15:20:30;9.20;99.90
4749;DHT22;2388;53.582;9.962;2024-03-06T15:22:58;9.20;99.90
4749;DHT22;2388;53.582;9.962;2024-03-06T15:25:24;9.10;99.90
4749;DHT22;2388;53.582;9.962;2024-03-06T15:27:49;9.00;99.90
4749;DHT22;2388;53.582;9.962;2024-03-06T15:30:15;9.00;99.90
4749;DHT22;2388;53.582;9.962;2024-03-06T15:32:41;9.00;99.90
4749;DHT22;2388;53.582;9.962;2024-03-06T15:35:07;9.00;99.90
4749;DHT22;2388;53.582;9.962;2024-03-06T15:37:34;8.90;99.90
4749;DHT22;2388;53.582;9.962;2024-03-06T15:39:59;8.70;99.90
4749;DHT22;2388;53.582;9.962;2024-03-06T15:42:25;8.70;99.90
4749;DHT22;2388;53.582;9.962;2024-03-06T15:44:53;8.70;99.90
4749;DHT22;2388;53.582;9.962;2024-03-06T15:47:20;8.50;99.90
4749;DHT22;2388;53.582;9.962;2024-03-06T15:49:46;8.50;99.90
4749;DHT22;2388;53.582;9.962;2024-03-06T15:52:12;8.50;99.90
4749;DHT22;2388;53.582;9.962;2024-03-06T15:54:38;8.50;99.90
4749;DHT22;2388;53.582;9.962;2024-03-06T15:57:04;8.50;99.90
4749;DHT22;2388;53.582;9.962;2024-03-06T15:59:33;8.60;99.90
4749;DHT22;2388;53.582;9.962;2024-03-06T16:01:59;8.50;99.90
4749;DHT22;2388;53.582;9.962;2024-03-06T16:04:24;8.50;99.90
4749;DHT22;2388;53.582;9.962;2024-03-06T16:06:51;8.40;99.90
4749;DHT22;2388;53.582;9.962;2024-03-06T16:09:16;8.40;99.90
4749;DHT22;2388;53.582;9.962;2024-03-06T16:11:42;8.40;99.90